METAR Data
IDs: Format: Raw Decoded Include TAF

Data at: 2211 UTC 24 Mar 2019

KBAZ 242151Z 18007KT 10SM CLR 28/17 A2999 RMK AO2 SLP147 T02780167
KBAZ 242051Z 17010KT 10SM BKN042 26/17 A3000 RMK AO2 SLP153 T02610172 58022
KBAZ 241951Z 21007KT 10SM FEW033 BKN043 27/18 A3003 RMK AO2 SLP160 T02670178
KBAZ 241851Z 22009KT 10SM BKN030 OVC035 24/18 A3005 RMK AO2 SLP171 T02440178
KBAZ 241839Z 22010KT 10SM BKN030 OVC034 25/17 A3006 RMK AO2 T02500172
KBAZ 241751Z 21010KT 10SM SCT021 BKN027 24/17 A3007 RMK AO2 SLP176 T02440172 10244 20183 58010
KBAZ 241651Z 20010KT 10SM OVC019 22/18 A3009 RMK AO2 SLP184 T02170178
KBAZ 241603Z 20010KT 10SM BKN016 OVC021 22/18 A3010 RMK AO2 T02170178
KBAZ 241551Z 20013KT 10SM BKN014 BKN019 OVC027 21/18 A3010 RMK AO2 SLP186 T02110178
KBAZ 241451Z 19007KT 10SM BKN009 OVC023 20/18 A3010 RMK AO2 SLP188 T02000178 53017
KBAZ 241351Z 18009KT 10SM BKN009 BKN015 OVC022 19/17 A3009 RMK AO2 CIG 007V011 SLP182 T01940172
KBAZ 241251Z 18007KT 7SM BKN009 OVC022 19/17 A3007 RMK AO2 SLP176 T01890172
KBAZ 241208Z 19006KT 10SM BKN009 OVC022 18/17 A3006 RMK AO2 T01830172
KBAZ 241151Z 18006KT 10SM FEW011 OVC021 18/17 A3005 RMK AO2 SLP170 T01830167 10194 20183 50002
KBAZ 241101Z AUTO 19007KT 10SM SCT010 OVC020 19/17 A3005 RMK AO2 T01890172
KBAZ 241051Z AUTO 19006KT 10SM BKN009 OVC020 19/17 A3005 RMK AO2 SLP171 T01890172
KBAZ 241028Z AUTO 20006KT 10SM OVC009 19/17 A3005 RMK AO2 T01940172
KBAZ 240951Z AUTO 18007KT 10SM OVC010 19/17 A3004 RMK AO2 SLP166 T01940172
KBAZ 240851Z AUTO 18008KT 10SM OVC012 19/17 A3004 RMK AO2 SLP166 T01940172 58003
KBAZ 240751Z AUTO 18008KT 10SM OVC013 19/17 A3005 RMK AO2 SLP169 T01940167
KBAZ 240651Z AUTO 18010KT 10SM OVC014 19/17 A3005 RMK AO2 SLP170 T01940167
KBAZ 240648Z AUTO 18009KT 10SM BKN014 OVC020 19/17 A3005 RMK AO2
KBAZ 240633Z AUTO 18008KT 10SM BKN015 OVC020 19/17 A3005 RMK AO2 T01890167
KBAZ 240551Z AUTO 18008KT 10SM OVC014 19/17 A3006 RMK AO2 SLP172 T01890167 10211 20178 402390161 58003
KBAZ 240523Z AUTO 18007KT 10SM BKN014 OVC020 18/16 A3006 RMK AO2 T01780161
KBAZ 240500Z AUTO 17008KT 10SM BKN018 BKN028 18/16 A3006 RMK AO2 T01780161
KBAZ 240451Z AUTO 17008KT 10SM SCT016 18/16 A3006 RMK AO2 SLP174 T01780161
KBAZ 240439Z AUTO 17010KT 10SM SCT020 18/16 A3007 RMK AO2 T01830161
KBAZ 240420Z AUTO 17009KT 10SM BKN022 19/16 A3007 RMK AO2 T01890161
KBAZ 240351Z AUTO 17011KT 10SM BKN034 19/16 A3007 RMK AO2 SLP176 T01940161
KBAZ 240251Z AUTO 17012KT 10SM OVC032 21/16 A3007 RMK AO2 SLP176 T02060156 53016
KBAZ 240236Z AUTO 18011KT 10SM FEW024 OVC030 21/16 A3007 RMK AO2 T02060156
KBAZ 240151Z AUTO 18010KT 10SM OVC029 21/15 A3006 RMK AO2 PRESRR SLP172 T02110150
KBAZ 240128Z AUTO 17012KT 10SM OVC029 21/15 A3003 RMK AO2 T02110150
KBAZ 240051Z AUTO 17010KT 10SM OVC032 21/16 A3003 RMK AO2 SLP162 T02110161
KBAZ 232351Z AUTO 16011KT 10SM OVC034 21/16 A3002 RMK AO2 SLP160 T02110161 10239 20206 55001
KBAZ 232333Z 17013KT 10SM OVC030 21/16 A3002 RMK AO2 T02110161
KBAZ 232324Z 17014KT 10SM OVC028 21/16 A3002 RMK AO2 T02060161
KBAZ 232251Z 17015KT 10SM OVC032 22/16 A3001 RMK AO2 SLP157 T02170161
KBAZ 232151Z 18017KT 10SM OVC034 22/16 A3002 RMK AO2 SLP159 T02220156
KBAZ 232051Z 17015KT 10SM OVC038 23/16 A3002 RMK AO2 SLP161 T02280156 56019
KBAZ 231951Z 17012KT 10SM BKN041 OVC050 23/16 A3004 RMK AO2 SLP168 T02280161
KBAZ 231851Z 18011KT 10SM BKN035 OVC042 22/16 A3006 RMK AO2 SLP172 T02220156
KBAZ 231751Z 18017G21KT 10SM FEW028 SCT037 OVC070 23/16 A3008 RMK AO2 SLP180 T02330161 10239 20167 58003
KBAZ 231651Z 18019KT 10SM FEW022 BKN034 OVC070 23/16 A3008 RMK AO2 SLP181 T02280161
KBAZ 231551Z 18011KT 10SM BKN018 BKN039 OVC070 21/16 A3008 RMK AO2 SLP182 T02110156
KBAZ 231451Z 16009KT 10SM OVC019 19/15 A3009 RMK AO2 SLP183 T01890150 51017
KBAZ 231351Z 16006KT 10SM BKN020 BKN032 OVC049 18/14 A3008 RMK AO2 SLP182 T01830144
KBAZ 231251Z 17003KT 10SM BKN021 BKN026 OVC048 17/14 A3006 RMK AO2 SLP173 T01720144
KBAZ 231151Z 18004KT 10SM BKN023 OVC055 17/14 A3004 RMK AO2 SLP166 T01720139 10178 20161 53011
KBAZ 231121Z AUTO 21004KT 10SM BKN021 OVC055 17/14 A3003 RMK AO2 T01720139
KBAZ 231109Z AUTO 20006KT 10SM SCT021 BKN055 OVC070 17/13 A3003 RMK AO2 T01720133
KBAZ 231051Z AUTO 18006KT 10SM BKN021 BKN055 OVC070 17/13 A3002 RMK AO2 SLP160 T01720133